aussie ACE2'S WEATHER STATIONaussie

Speaker Icon Turns Ambient Background Sounds ON/OFF
Select which page style from below(a cookie will remember your selection for future use for style)
Standard Style Theme Current Conditions Style Changer

Latitude S 35° 06' 39"   Longitude E 138° 31' 40"   Elevation 102 m

OBSERVATIONS  0 - 24  HOURS

00-24 HOURS 24-48 HOURS 48-72 HOURS 72-96 HOURS 96-120 HOURS Navigation Menu

Date/Time
WST
temperature
°C
Dew Point
°C
Humidity
%
Wind Speed
km/h
Wind Gust
km/h
Wind
Direction
Barometer
mb
Rain Today
mm
16/12:00am 16.1 12.5 79 1.1 5.0 1013.2 0.0
15/11:30pm 15.8 11.8 77 3.6 5.0 1013.2 4.5
15/11:00pm 15.3 11.1 76 0.0 3.6 1013.2 4.5
15/10:30pm 15.4 11.0 75 0.0 2.5 1013.2 4.5
15/10:00pm 16.2 11.2 72 0.0 1.1 1013.2 4.5
15/09:30pm 16.8 11.5 71 2.5 3.6 1013.2 4.5
15/09:00pm 16.6 11.1 70 0.0 1.1 1013.2 4.5
15/08:30pm 16.9 11.0 68 0.0 2.5 1013.2 4.5
15/08:00pm 17.1 10.9 67 1.1 3.6 1013.2 4.5
15/07:30pm 17.7 10.6 63 0.0 6.1 1013.2 4.5
15/07:00pm 19.1 10.9 59 0.0 5.0 1013.2 4.5
15/06:30pm 20.7 11.1 54 2.5 8.6 1013.2 4.5
15/06:00pm 22.2 11.9 52 1.1 5.0 1013.2 4.5
15/05:30pm 22.9 12.5 52 5.0 6.1 1013.2 4.5
15/05:00pm 21.6 13.0 58 1.1 7.2 1013.2 4.5
15/04:30pm 24.2 13.1 50 3.6 5.0 1013.2 4.5
15/04:00pm 21.8 13.7 60 2.5 3.6 1013.2 4.5
15/03:30pm 20.7 12.9 61 1.1 3.6 1013.2 4.5
15/03:00pm 21.2 13.9 63 1.1 8.6 1013.2 4.5
15/02:30pm 24.9 15.8 57 2.5 6.1 1013.2 4.5
15/02:00pm 22.3 15.4 65 2.5 8.6 1013.2 4.5
15/01:30pm 21.5 15.1 67 1.1 6.1 1013.2 4.5
15/01:00pm 21.1 15.2 69 1.1 5.0 1013.2 4.5
15/12:30pm 25.6 14.7 51 1.1 9.7 1013.2 3.6
15/12:00pm 27.6 11.2 36 22.0 30.6 1013.2 3.6
15/11:30am 27.5 11.5 37 17.3 31.7 1013.2 3.6
15/11:00am 26.8 12.1 40 12.2 37.8 1013.2 3.6
15/10:30am 26.9 11.4 38 20.9 35.6 1013.2 3.6
15/10:00am 27.8 10.5 34 18.4 40.3 1013.2 3.3
15/09:30am 26.7 12.4 41 17.3 31.7 1013.2 3.3
15/09:00am 24.6 11.9 45 14.8 30.6 1013.2 3.3
15/08:30am 24.2 11.5 45 18.4 36.7 1013.2 3.3
15/08:00am 24.1 11.1 44 18.4 34.2 1013.2 3.3
15/07:30am 23.4 11.1 46 17.3 31.7 1013.2 3.3
15/07:00am 21.8 12.4 55 13.3 28.1 1013.2 3.3
15/06:30am 21.3 12.5 57 13.3 22.0 1013.2 3.3
15/06:00am 20.2 12.7 62 11.2 17.3 1013.2 3.0
15/05:30am 23.1 10.5 45 3.6 13.3 1013.2 2.7
15/05:00am 23.9 9.9 41 3.6 17.3 1013.2 2.7
15/04:30am 23.6 9.6 41 8.6 18.4 1013.2 2.7
15/04:00am 23.8 9.8 41 17.3 23.4 1013.2 2.7
15/03:30am 22.3 11.4 50 11.2 18.4 1013.2 2.7
15/03:00am 19.7 12.5 63 6.1 13.3 1013.2 2.7
15/02:30am 18.5 13.4 72 3.6 7.2 1013.2 2.7
15/02:00am 18.2 13.7 75 3.6 5.0 1013.2 2.7
15/01:30am 18.7 13.8 73 3.6 18.4 1013.2 2.4
15/01:00am 21.2 13.1 60 6.1 15.8 1013.2 0.0
15/12:30am 21.5 13.2 59 8.6 23.4 1013.2 0.0
15/12:00am 22.2 12.5 54 11.2 14.8 1013.2 0.0
14/11:30pm 22.4 12.7 54 6.1 20.9 1013.2 4.5

OBSERVATIONS  24 - 48  HOURS

00-24 HOURS 24-48 HOURS 48-72 HOURS 72-96 HOURS 96-120 HOURS Navigation Menu

Date/Time
WST
temperature
°C
Dew Point
°C
Humidity
%
Wind Speed
km/h
Wind Gust
km/h
Wind
Direction
Barometer
mb
Rain Today
mm
15/12:00am 22.2 12.5 54 11.2 14.8 1013.2 0.0
14/11:30pm 22.4 12.7 54 6.1 20.9 1013.2 4.5
14/11:00pm 21.6 13.5 60 18.4 23.4 1013.2 4.5
14/10:30pm 20.5 14.4 68 14.8 23.4 1013.2 4.5
14/10:00pm 22.0 13.9 60 9.7 18.4 1013.2 3.9
14/09:30pm 21.3 13.7 62 12.2 17.3 1013.2 3.9
14/09:00pm 18.9 14.8 77 2.5 7.2 1013.2 3.9
14/08:30pm 18.1 15.0 82 6.1 7.2 1013.2 3.9
14/08:00pm 17.9 15.7 87 6.1 9.7 1013.2 3.9
14/07:30pm 18.2 15.1 82 1.1 2.5 1013.2 3.6
14/07:00pm 19.2 14.0 72 0.0 5.0 1013.2 3.3
14/06:30pm 21.6 14.3 63 0.0 2.5 1013.2 2.1
14/06:00pm 22.8 12.7 53 1.1 5.0 1013.2 1.8
14/05:30pm 22.9 13.4 55 5.0 11.2 1013.2 1.8
14/05:00pm 24.2 12.8 49 5.0 12.2 1013.2 1.8
14/04:30pm 22.3 15.7 66 2.5 5.0 1013.2 1.8
14/04:00pm 23.4 13.9 55 7.2 12.2 1013.2 1.8
14/03:30pm 20.5 15.5 73 2.5 3.6 1013.2 1.8
14/03:00pm 20.3 16.4 78 6.1 8.6 1013.2 1.8
14/02:30pm 19.9 14.5 71 1.1 2.5 1013.2 0.9
14/02:00pm 22.5 12.5 53 2.5 7.2 1013.2 0.3
14/01:30pm 26.6 12.3 41 6.1 13.3 1013.2 0.3
14/01:00pm 29.1 9.8 30 7.2 25.6 1013.2 0.3
14/12:30pm 29.9 10.5 30 11.2 24.5 1013.2 0.3
14/12:00pm 29.0 9.7 30 12.2 23.4 1013.2 0.3
14/11:30am 29.1 9.3 29 13.3 23.4 1013.2 0.3
14/11:00am 27.2 9.6 33 8.6 40.3 1013.2 0.3
14/10:30am 26.9 10.2 35 13.3 30.6 1013.2 0.3
14/10:00am 24.8 9.1 37 11.2 24.5 1013.2 0.3
14/09:30am 23.7 9.3 40 11.2 25.6 1013.2 0.3
14/09:00am 23.5 9.1 40 8.6 15.8 1013.2 0.3
14/08:30am 22.9 8.6 40 6.1 17.3 1013.2 0.3
14/08:00am 21.8 9.4 45 6.1 18.4 1013.2 0.3
14/07:30am 20.7 10.2 51 13.3 25.6 1013.2 0.3
14/07:00am 20.5 10.6 53 5.0 13.3 1013.2 0.3
14/06:30am 21.8 9.4 45 2.5 9.7 1013.2 0.0
14/06:00am 22.1 9.3 44 2.5 13.3 1013.2 0.0
14/05:30am 23.6 7.3 35 6.1 24.5 1013.2 0.0
14/05:00am 24.2 6.5 32 15.8 28.1 1013.2 0.0
14/04:30am 24.0 6.8 33 7.2 25.6 1013.2 0.0
14/04:00am 23.7 6.9 34 13.3 24.5 1013.2 0.0
14/03:30am 23.7 7.3 35 14.8 28.1 1013.2 0.0
14/03:00am 23.9 7.5 35 15.8 31.7 1013.2 0.0
14/02:30am 23.9 7.1 34 18.4 27.0 1013.2 0.0
14/02:00am 24.0 7.2 34 20.9 28.1 1013.2 0.0
14/01:30am 23.3 7.8 37 9.7 20.9 1013.2 0.0
14/01:00am 23.2 8.1 38 12.2 23.4 1013.2 0.0
14/12:30am 23.0 8.3 39 19.4 27.0 1013.2 0.0
14/12:00am 22.8 8.5 40 9.7 24.5 1013.2 0.0
13/11:30pm 22.6 8.7 41 7.2 23.4 1013.2 0.0

OBSERVATIONS  48 - 72  HOURS

00-24 HOURS 24-48 HOURS 48-72 HOURS 72-96 HOURS 96-120 HOURS Navigation Menu

Date/Time
WST
temperature
°C
Dew Point
°C
Humidity
%
Wind Speed
km/h
Wind Gust
km/h
Wind
Direction
Barometer
mb
Rain Today
mm
14/12:00am 22.8 8.5 40 9.7 24.5 1013.2 0.0
13/11:30pm 22.6 8.7 41 7.2 23.4 1013.2 0.0
13/11:00pm 22.7 8.8 41 14.8 22.0 1013.2 0.0
13/10:30pm 22.9 8.6 40 9.7 23.4 1013.2 0.0
13/10:00pm 22.8 8.9 41 12.2 18.4 1013.2 0.0
13/09:30pm 22.8 8.9 41 9.7 17.3 1013.2 0.0
13/09:30pm 23.1 9.1 41 13.3 18.4 1013.2 0.0
13/08:30pm 23.6 8.9 39 14.8 20.9 1013.2 0.0
13/08:00pm 23.4 5.8 32 5.0 9.7 1013.2 0.0
13/07:30pm 23.8 5.7 31 1.1 5.0 1013.2 0.0
13/07:00pm 25.3 6.5 30 0.0 5.0 1013.2 0.0
13/06:30pm 26.3 5.3 26 2.5 9.7 1013.2 0.0
13/06:00pm 27.1 5.4 25 6.1 12.2 1013.2 0.0
13/05:30pm 28.3 3.9 21 7.2 13.3 1013.2 0.0
13/05:00pm 29.1 4.6 21 5.0 13.3 1013.2 0.0
13/05:00pm 29.1 4.6 21 5.0 13.3 1013.2 0.0
13/04:00pm 31.7 6.0 20 2.5 5.0 1013.2 0.0
13/03:30pm 30.7 5.2 20 3.6 7.2 1013.2 0.0
13/03:00pm 31.9 6.2 20 5.0 11.2 1013.2 0.0
13/02:30pm 28.1 5.7 24 5.0 8.6 1013.2 0.0
13/02:00pm 28.9 4.4 21 0.0 9.7 1013.2 0.0
13/01:30pm 29.4 4.8 21 5.0 7.2 1013.2 0.0
13/01:00pm 29.1 5.9 23 3.6 5.0 1013.2 0.0
13/12:30pm 26.6 6.6 28 0.0 2.5 1013.2 0.0
13/12:00pm 28.9 6.9 25 0.0 3.6 1013.2 0.0
13/11:30am 29.7 4.4 20 1.1 7.2 1013.2 0.0
13/11:00am 29.6 4.3 20 2.5 8.6 1013.2 0.0
13/10:30am 27.6 4.0 22 7.2 13.3 1013.2 0.0
13/10:00am 27.6 5.8 25 5.0 12.2 1013.2 0.0
13/09:30am 27.2 8.6 31 5.0 14.8 1013.2 0.0
13/09:00am 25.9 8.0 32 8.6 11.2 1013.2 0.0
13/08:30am 26.1 9.5 35 3.6 5.0 1013.2 0.0
13/08:00am 22.4 11.5 50 0.0 3.6 1013.2 0.0
13/07:30am 15.0 8.5 65 2.5 3.6 1013.2 0.0
13/07:00am 13.3 7.3 67 1.1 2.5 1013.2 0.0
13/06:30am 12.9 6.9 67 1.1 3.6 1013.2 0.0
13/06:00am 13.9 6.7 62 0.0 2.5 1013.2 0.0
13/05:30am 15.1 7.6 61 1.1 5.0 1013.2 0.0
13/05:00am 15.2 7.2 59 1.1 2.5 1013.2 0.0
13/04:30am 15.5 7.3 58 3.6 6.1 1013.2 0.0
13/04:00am 16.1 7.1 55 2.5 6.1 1013.2 0.0
13/03:30am 15.6 6.6 55 1.1 2.5 1013.2 0.0
13/03:00am 16.2 6.3 52 3.6 5.0 1013.2 0.0
13/02:30am 17.0 6.8 51 1.1 5.0 1013.2 0.0
13/02:00am 17.1 6.9 51 2.5 8.6 1013.2 0.0
13/01:30am 17.5 5.8 46 0.0 6.1 1013.2 0.0
13/01:00am 17.9 5.8 45 7.2 13.3 1013.2 0.0
13/12:30am 17.6 5.9 46 5.0 9.7 1013.2 0.0
13/12:00am 17.7 5.9 46 5.0 12.2 1013.2 0.0
12/11:30pm 17.9 6.1 46 2.5 11.2 1013.2 0.0

OBSERVATIONS  72 - 96  HOURS

00-24 HOURS 24-48 HOURS 48-72 HOURS 72-96 HOURS 96-120 HOURS Navigation Menu

Date/Time
WST
temperature
°C
Dew Point
°C
Humidity
%
Wind Speed
km/h
Wind Gust
km/h
Wind
Direction
Barometer
mb
Rain Today
mm
13/12:00am 17.7 5.9 46 5.0 12.2 1013.2 0.0
12/11:30pm 17.9 6.1 46 2.5 11.2 1013.2 0.0
12/11:00pm 18.3 6.2 45 7.2 11.2 1013.2 0.0
12/10:30pm 18.3 6.2 45 7.2 12.2 1013.2 0.0
12/10:00pm 18.0 6.5 47 5.0 7.2 1013.2 0.0
12/09:30pm 17.1 7.2 52 3.6 7.2 1013.2 0.0
12/09:00pm 18.0 8.0 52 3.6 8.6 1013.2 0.0
12/08:30pm 18.4 8.1 51 2.5 6.1 1013.2 0.0
12/08:00pm 19.5 8.2 48 1.1 5.0 1013.2 0.0
12/07:30pm 20.8 7.1 41 1.1 3.6 1013.2 0.0
12/07:00pm 22.1 7.9 40 3.6 13.3 1013.2 0.0
12/06:30pm 23.0 6.3 34 3.6 11.2 1013.2 0.0
12/06:00pm 23.6 6.4 33 5.0 14.8 1013.2 0.0
12/05:30pm 24.3 7.0 33 7.2 12.2 1013.2 0.0
12/05:00pm 23.9 6.2 32 9.7 18.4 1013.2 0.0
12/04:30pm 24.4 6.7 32 7.2 13.3 1013.2 0.0
12/04:00pm 24.6 7.3 33 7.2 18.4 1013.2 0.0
12/03:30pm 25.4 8.0 33 7.2 17.3 1013.2 0.0
12/03:00pm 24.7 7.4 33 11.2 13.3 1013.2 0.0
12/02:30pm 24.4 6.7 32 3.6 13.3 1013.2 0.0
12/02:00pm 24.5 6.3 31 6.1 17.3 1013.2 0.0
12/01:30pm 25.6 7.2 31 11.2 15.8 1013.2 0.0
12/01:00pm 26.6 8.6 32 3.6 13.3 1013.2 0.0
12/12:30pm 25.9 7.5 31 8.6 18.4 1013.2 0.0
12/12:00pm 26.1 8.6 33 6.1 12.2 1013.2 0.0
12/11:30am 25.2 8.7 35 8.6 13.3 1013.2 0.0
12/11:00am 22.5 8.6 41 6.1 9.7 1013.2 0.0
12/10:30am 21.5 9.1 45 2.5 7.2 1013.2 0.0
12/10:00am 20.2 8.2 46 2.5 14.8 1013.2 0.0
12/09:30am 21.3 7.9 42 11.2 17.3 1013.2 0.0
12/09:00am 17.7 5.9 46 5.0 12.2 1013.2 0.0
12/08:30am 17.3 7.1 51 5.0 8.6 1013.2 0.0
12/08:00am 17.6 5.5 45 6.1 8.6 1013.2 0.0
12/07:30am 14.4 6.0 57 2.5 12.2 1013.2 0.0
12/07:00am 14.4 5.5 55 5.0 17.3 1013.2 0.0
12/06:30am 13.6 5.7 59 6.1 9.7 1013.2 0.0
12/06:00am 13.7 6.3 61 6.1 17.3 1013.2 0.0
12/05:30am 13.5 6.4 62 5.0 13.3 1013.2 0.0
12/05:00am 13.4 6.7 64 7.2 13.3 1013.2 0.0
12/04:30am 13.5 6.8 64 5.0 11.2 1013.2 0.0
12/04:00am 13.8 7.1 64 5.0 14.8 1013.2 0.0
12/03:30am 13.8 7.6 66 8.6 13.3 1013.2 0.0
12/03:00am 13.7 7.9 68 8.6 15.8 1013.2 0.0
12/02:30am 14.0 8.0 67 6.1 12.2 1013.2 0.0
12/02:00am 14.3 7.8 65 6.1 14.8 1013.2 0.0
12/01:30am 14.7 8.0 64 7.2 15.8 1013.2 0.0
12/01:00am 15.1 8.1 63 12.2 15.8 1013.2 0.0
12/12:30am 15.0 8.5 65 6.1 20.9 1013.2 0.0
12/12:00am 14.5 9.1 70 9.7 12.2 1013.2 0.0
11/11:30pm 14.4 9.0 70 6.1 11.2 1013.2 0.0

OBSERVATIONS  96 - 120  HOURS

00-24 HOURS 24-48 HOURS 48-72 HOURS 72-96 HOURS 96-120 HOURS Navigation Menu

Date/Time
WST
temperature
°C
Dew Point
°C
Humidity
%
Wind Speed
km/h
Wind Gust
km/h
Wind
Direction
Barometer
mb
Rain Today
mm
12/12:00am 14.5 9.1 70 9.7 12.2 1013.2 0.0
11/11:30pm 14.4 9.0 70 6.1 11.2 1013.2 0.0
11/11:00pm 14.2 9.0 71 5.0 13.3 1013.2 0.0
11/10:30pm 14.0 8.6 70 7.2 12.2 1013.2 0.0
11/10:07pm 14.0 8.4 69 8.6 12.2 1013.2 0.0
11/09:37pm 14.0 7.5 65 7.2 12.2 1013.2 0.0
11/09:07pm 13.8 6.9 63 5.0 6.1 1013.2 0.0
11/08:37pm 13.8 6.4 61 5.0 6.1 1013.2 0.0
11/08:07pm 14.2 6.8 61 3.6 5.0 1013.2 0.0
11/07:37pm 15.0 7.0 59 3.6 5.0 1013.2 0.0
11/07:07pm 16.3 7.5 56 2.5 3.6 1013.2 0.0
11/06:37pm 17.5 7.0 50 2.5 3.6 1013.2 0.0
11/06:07pm 18.9 6.7 45 5.0 7.2 1013.2 0.0
11/05:37pm 23.1 6.4 34 5.0 7.2 1013.2 0.0
11/05:07pm 23.7 6.5 33 6.1 11.2 1013.2 0.0
11/04:37pm 24.6 6.3 31 2.5 5.0 1013.2 0.0
11/04:07pm 25.0 6.2 30 6.1 8.6 1013.2 0.0
11/03:37pm 24.5 5.8 30 7.2 11.2 1013.2 0.0
11/03:07pm 25.2 6.9 31 2.5 3.6 1013.2 0.0
11/02:37pm 24.6 6.8 32 6.1 7.2 1013.2 0.0
11/02:07pm 24.2 6.5 32 1.1 2.5 1013.2 0.0
11/01:37pm 24.3 6.5 32 2.5 5.0 1013.2 0.0
11/01:07pm 23.6 5.5 31 5.0 7.2 1013.2 0.0
11/12:37pm 23.0 5.9 33 5.0 7.2 1013.2 0.0
11/12:07pm 23.1 5.5 32 2.5 3.6 1013.2 0.0
11/11:37am 22.6 5.9 34 5.0 6.1 1013.2 0.0
11/11:07am 20.0 6.3 41 6.1 7.2 1013.2 0.0
11/10:37am 19.2 6.3 43 7.2 9.7 1013.2 0.0
11/10:07am 17.4 6.3 48 9.7 15.8 1013.2 0.0
11/09:37am 17.1 7.2 52 5.0 7.2 1013.2 0.0
11/09:07am 15.5 6.2 54 6.1 11.2 1013.2 0.0
11/08:37am 13.7 5.6 58 9.7 13.3 1013.2 0.0
11/08:07am 11.9 6.0 67 6.1 8.6 1013.2 0.0
11/07:37am 9.3 5.1 75 8.6 14.8 1013.2 0.0
11/07:07am 8.3 4.3 76 7.2 9.7 1013.2 0.0
11/06:37am 8.1 4.1 76 3.6 6.1 1013.2 0.0
11/06:07am 8.2 4.0 75 6.1 9.7 1013.2 0.0
11/05:37am 8.2 3.8 74 5.0 8.6 1013.2 0.0
11/05:07am 8.4 3.8 73 8.6 11.2 1013.2 0.0
11/04:37am 8.5 3.7 72 3.6 6.1 1013.2 0.0
11/04:07am 8.6 3.6 71 5.0 6.1 1013.2 0.0
11/03:37am 8.8 3.8 71 2.5 5.0 1013.2 0.0
11/03:07am 8.9 4.1 72 5.0 7.2 1013.2 0.0
11/02:37am 9.3 4.5 72 2.5 5.0 1013.2 0.0
11/02:07am 9.8 4.8 71 2.5 6.1 1013.2 0.0
11/01:37am 9.8 5.0 72 3.6 5.0 1013.2 0.0
11/01:07am 10.1 5.3 72 2.5 3.6 1013.2 0.0
11/12:37am 10.7 6.1 73 2.5 3.6 1013.2 0.0
11/12:07am 10.7 7.9 83 6.1 8.6 1013.2 0.0
10/11:37pm 10.9 7.9 82 0.0 1.1 1013.2 0.0

00-24 HOURS 24-48 HOURS 48-72 HOURS 72-96 HOURS 96-120 HOURS Navigation Menu


PLEASE CONSIDER LIKING/SHARING ON FACEBOOK WITH LINK ABOVE
THANK YOU.

Check out my video archive on my YouTube channel which has all my time-lapse videos created
Please feel free to donate to help with improvements and keep this site going with the link below(PayPal)
Cumulus Top Weather Sites World Weather Websites Paulen Top 100 Weatherstation List

Page updated 16/10/2018 12:00 AM
powered by Cumulusv1.9.4 (1099)
Free counters!
Insect leftPhyllium MonteithiInsect Right
Visit my FaceBook group : Australian Leaf Insect Care/Information Sharing


Speaker Icon Turns Ambient Background Sounds ON/OFF